Okanogan, WA

7:15 PM PDT on August 28, 2014 (GMT -0700)
Pangborn Memorial | Change Station
CLOSE
Current Station
Airport
Location: Wenatchee,
Elevation: 1247 ft
Nearby Weather Stations

Elev 1247 ft 47.40 °N, 120.21 °W | Updated 20 minutes ago

Clear
Clear
82 °F
Feels Like 82 °F
N
22
Wind Variable Wind from NW

Today
High -- | Low -- °F
--% Chance of Precip.
Yesterday
High -- | Low -- °F
Precip. -- in
6:10 AM 7:47 PM
Waxing Crescent, 11% visible
Pressure 29.90 in
Visibility 10.0 miles
Clouds Clear
Dew Point 40 °F
Humidity 22%
Rainfall 0.00 in
Snow Depth Not available.
UV 0 out of 12
Pollen 7.70 out of 12
Air Quality Not available.
Flu Activity Not available.
METAR KEAT 290155Z AUTO 32019KT 10SM CLR 28/04 A2992 RMK AO2 SLP124 T02780044

More Conditions Fewer Conditions

Pressure 29.90 in
Visibility 10.0 miles
Clouds Clear
Dew Point 40 °F
Humidity 22%
Rainfall 0.00 in
Snow Depth Not available.
UV 0 out of 12
Pollen 7.70 out of 12
Air Quality Not available.
Flu Activity Not available.
METAR KEAT 290155Z AUTO 32019KT 10SM CLR 28/04 A2992 RMK AO2 SLP124 T02780044

More Conditions Fewer Conditions

10-Day Weather Forecast

Almanac

Astronomy

Aug. 28, 2014 Rise Set
Actual Time 6:10 AM PDT 7:47 PM PDT
Civil Twilight 5:37 AM PDT 8:20 PM PDT
Nautical Twilight 4:57 AM PDT 9:00 PM PDT
Astronomical Twilight 4:13 AM PDT 9:43 PM PDT
Moon 9:24 AM PDT (8/28) 8:55 PM PDT (8/28)
Length of Visible Light 14h 42m
Length of Day
13h 37m
Tomorrow will be 3m 22s shorter.
Waxing Crescent, 11% of the Moon is Illuminated
Today
Waxing Crescent
Sep 2
First Quarter
Sep 8
Full
Sep 15
Last Quarter
Sep 24
New

Today's Extremes

State Highs State Lows

Community

WunderPhotos

Upload Photos

1,748,124 photos uploaded!

Nearby

Snow Depth

Station Depth Elevation
Moses Mountain 1 in 5300 ft
Rainy Pass 0 in 4780 ft
Harts Pass 0 in 6500 ft
Park Creek Ridge 0 in 4600 ft
Thunder Basin 1 in 4200 ft

Earthquake Activity

City Distance Mag. Time & Date
No recent earthquake activity has been reported nearby.
Minimum magnitude displayed is 2.5.

Coastal Water Temperatures

Place Temperature
No Stations Reporting

Nearby Weather Stations